Nos coordonnées

Nous sommes à votre écoute du lundi au dimanche de 10:00 à 19:00 au :

+32 (0)495 19 89 53

 

Adresse d'exploitation Adresse de facturation
Chaussée de Nivelles, 629
6230 Buzet
Belgique
Kouter 107/2
9000 Gent
Belgique

contact @ blackhelicopters.be (n'oubliez pas de supprimer les espaces)


Nous retrouver

Il est très fortement conseillé de nous appeler avant de venir sur le terrain, nous pouvons être en mission ou en vol!

 

La carte ci-dessous est interactive, cherchez vos itinéraires, déplacez la pour vous retrouver.

News

Votre panier

Le panier est vide

Météo Charleroi

METAR
EBCI 252050Z 33005KT 300V360 7000 SCT010 BKN025 10/08 Q1029 NOSIG =
AMD EBCI 251833Z 2518/2624 33005KT 9999 FEW040 TEMPO 2519/2521 4000 RA SHRA BKN005 BKN015TCU BECMG 2522/2524 SCT007 BKN012 TEMPO 2600/2608 4000 -RA SCT004 BKN006 PROB30 TEMPO 2600/2608 2500 RA BKN004 BECMG 2609/2611 BKN020
TAF
AMD EBCI 251833Z 2518/2624 33005KT 9999 FEW040 TEMPO 2519/2521 4000 RA SHRA BKN005 BKN015TCU BECMG 2522/2524 SCT007 BKN012 TEMPO 2600/2608 4000 -RA SCT004 BKN006 PROB30 TEMPO 2600/2608 2500 RA BKN004 BECMG 2609/2611 BKN020 =
Lever / Coucher : 06:33 / 17:18 UTC (Buzet 2021-02-25)